sensor_id;sensor_type;location;lat;lon;timestamp;pressure;altitude;pressure_sealevel;temperature;humidity
8641;BME280;4358;42.100;25.222;2023-01-25T00:02:06;101610.97;;;4.18;100.00
8641;BME280;4358;42.100;25.222;2023-01-25T00:04:33;101616.19;;;4.20;100.00
8641;BME280;4358;42.100;25.222;2023-01-25T00:07:00;101611.84;;;4.17;100.00
8641;BME280;4358;42.100;25.222;2023-01-25T00:09:27;101615.31;;;4.19;100.00
8641;BME280;4358;42.100;25.222;2023-01-25T00:11:54;101616.16;;;4.23;100.00
8641;BME280;4358;42.100;25.222;2023-01-25T00:14:23;101608.38;;;4.15;100.00
8641;BME280;4358;42.100;25.222;2023-01-25T00:16:49;101611.88;;;4.14;100.00
8641;BME280;4358;42.100;25.222;2023-01-25T00:19:18;101619.66;;;4.23;100.00
8641;BME280;4358;42.100;25.222;2023-01-25T00:21:45;101614.34;;;4.26;100.00
8641;BME280;4358;42.100;25.222;2023-01-25T00:24:11;101616.97;;;4.26;100.00
8641;BME280;4358;42.100;25.222;2023-01-25T00:26:39;101622.22;;;4.26;100.00
8641;BME280;4358;42.100;25.222;2023-01-25T00:29:10;101613.41;;;4.31;100.00
8641;BME280;4358;42.100;25.222;2023-01-25T00:31:43;101617.75;;;4.33;100.00
8641;BME280;4358;42.100;25.222;2023-01-25T00:37:23;101615.09;;;4.35;100.00
8641;BME280;4358;42.100;25.222;2023-01-25T00:39:50;101620.47;;;4.29;100.00
8641;BME280;4358;42.100;25.222;2023-01-25T00:42:17;101618.63;;;4.34;100.00
8641;BME280;4358;42.100;25.222;2023-01-25T00:44:45;101616.00;;;4.34;100.00
8641;BME280;4358;42.100;25.222;2023-01-25T00:47:12;101615.94;;;4.37;100.00
8641;BME280;4358;42.100;25.222;2023-01-25T00:49:40;101615.84;;;4.44;100.00
8641;BME280;4358;42.100;25.222;2023-01-25T00:52:08;101617.53;;;4.48;100.00
8641;BME280;4358;42.100;25.222;2023-01-25T00:54:37;101619.22;;;4.51;100.00
8641;BME280;4358;42.100;25.222;2023-01-25T00:57:04;101616.66;;;4.48;100.00
8641;BME280;4358;42.100;25.222;2023-01-25T00:59:31;101619.34;;;4.45;100.00
8641;BME280;4358;42.100;25.222;2023-01-25T01:01:58;101621.16;;;4.40;100.00
8641;BME280;4358;42.100;25.222;2023-01-25T01:04:26;101623.84;;;4.37;100.00
8641;BME280;4358;42.100;25.222;2023-01-25T01:06:53;101621.25;;;4.34;100.00
8641;BME280;4358;42.100;25.222;2023-01-25T01:09:21;101624.72;;;4.37;100.00
8641;BME280;4358;42.100;25.222;2023-01-25T01:11:49;101616.75;;;4.42;100.00
8641;BME280;4358;42.100;25.222;2023-01-25T01:14:16;101622.00;;;4.42;100.00
8641;BME280;4358;42.100;25.222;2023-01-25T01:16:43;101627.16;;;4.49;100.00
8641;BME280;4358;42.100;25.222;2023-01-25T01:19:10;101626.25;;;4.50;100.00
8641;BME280;4358;42.100;25.222;2023-01-25T01:21:37;101633.25;;;4.51;100.00
8641;BME280;4358;42.100;25.222;2023-01-25T01:24:05;101620.16;;;4.50;100.00
8641;BME280;4358;42.100;25.222;2023-01-25T01:26:32;101621.97;;;4.45;100.00
8641;BME280;4358;42.100;25.222;2023-01-25T01:29:00;101616.81;;;4.39;100.00
8641;BME280;4358;42.100;25.222;2023-01-25T01:31:27;101603.69;;;4.36;100.00
8641;BME280;4358;42.100;25.222;2023-01-25T01:33:55;101606.31;;;4.36;100.00
8641;BME280;4358;42.100;25.222;2023-01-25T01:36:24;101602.94;;;4.29;100.00
8641;BME280;4358;42.100;25.222;2023-01-25T01:38:52;101601.19;;;4.26;100.00
8641;BME280;4358;42.100;25.222;2023-01-25T01:41:19;101605.59;;;4.24;100.00
8641;BME280;4358;42.100;25.222;2023-01-25T01:43:46;101596.00;;;4.23;100.00
8641;BME280;4358;42.100;25.222;2023-01-25T01:46:18;101581.25;;;4.13;100.00
8641;BME280;4358;42.100;25.222;2023-01-25T01:48:48;101596.03;;;4.20;100.00
8641;BME280;4358;42.100;25.222;2023-01-25T01:51:20;101598.78;;;4.13;100.00
8641;BME280;4358;42.100;25.222;2023-01-25T01:53:52;101596.25;;;4.05;100.00
8641;BME280;4358;42.100;25.222;2023-01-25T01:56:25;101589.44;;;3.89;100.00
8641;BME280;4358;42.100;25.222;2023-01-25T01:58:55;101596.44;;;3.90;100.00
8641;BME280;4358;42.100;25.222;2023-01-25T02:01:26;101594.63;;;3.95;100.00
8641;BME280;4358;42.100;25.222;2023-01-25T02:03:53;101596.44;;;3.92;100.00
8641;BME280;4358;42.100;25.222;2023-01-25T02:06:27;101593.81;;;3.89;100.00
8641;BME280;4358;42.100;25.222;2023-01-25T02:08:57;101589.69;;;3.71;100.00
8641;BME280;4358;42.100;25.222;2023-01-25T02:11:25;101588.88;;;3.64;100.00
8641;BME280;4358;42.100;25.222;2023-01-25T02:13:53;101592.44;;;3.60;100.00
8641;BME280;4358;42.100;25.222;2023-01-25T02:16:24;101597.53;;;3.72;100.00
8641;BME280;4358;42.100;25.222;2023-01-25T02:18:55;101594.94;;;3.71;100.00
8641;BME280;4358;42.100;25.222;2023-01-25T02:21:24;101597.56;;;3.71;100.00
8641;BME280;4358;42.100;25.222;2023-01-25T02:23:55;101606.34;;;3.68;100.00
8641;BME280;4358;42.100;25.222;2023-01-25T02:26:27;101602.91;;;3.62;100.00
8641;BME280;4358;42.100;25.222;2023-01-25T02:28:56;101599.47;;;3.58;100.00
8641;BME280;4358;42.100;25.222;2023-01-25T02:31:25;101598.59;;;3.58;100.00
8641;BME280;4358;42.100;25.222;2023-01-25T02:33:51;101594.97;;;3.68;100.00
8641;BME280;4358;42.100;25.222;2023-01-25T02:36:21;101598.44;;;3.70;100.00
8641;BME280;4358;42.100;25.222;2023-01-25T02:38:53;101593.16;;;3.73;100.00
8641;BME280;4358;42.100;25.222;2023-01-25T02:41:24;101595.84;;;3.67;100.00
8641;BME280;4358;42.100;25.222;2023-01-25T02:43:54;101590.69;;;3.61;100.00
8641;BME280;4358;42.100;25.222;2023-01-25T02:46:23;101581.09;;;3.57;100.00
8641;BME280;4358;42.100;25.222;2023-01-25T02:48:52;101591.50;;;3.66;100.00
8641;BME280;4358;42.100;25.222;2023-01-25T02:51:20;101589.72;;;3.68;100.00
8641;BME280;4358;42.100;25.222;2023-01-25T02:53:47;101602.13;;;3.54;100.00
8641;BME280;4358;42.100;25.222;2023-01-25T02:56:14;101598.66;;;3.52;100.00
8641;BME280;4358;42.100;25.222;2023-01-25T02:58:41;101597.69;;;3.60;100.00
8641;BME280;4358;42.100;25.222;2023-01-25T03:01:10;101607.28;;;3.63;100.00
8641;BME280;4358;42.100;25.222;2023-01-25T03:03:37;101598.50;;;3.64;100.00
8641;BME280;4358;42.100;25.222;2023-01-25T03:06:04;101595.06;;;3.59;100.00
8641;BME280;4358;42.100;25.222;2023-01-25T03:08:31;101606.56;;;3.47;100.00
8641;BME280;4358;42.100;25.222;2023-01-25T03:11:00;101576.06;;;3.35;100.00
8641;BME280;4358;42.100;25.222;2023-01-25T03:13:27;101600.41;;;3.51;100.00
8641;BME280;4358;42.100;25.222;2023-01-25T03:15:58;101601.19;;;3.59;100.00
8641;BME280;4358;42.100;25.222;2023-01-25T03:18:26;101598.66;;;3.52;100.00
8641;BME280;4358;42.100;25.222;2023-01-25T03:20:53;101589.13;;;3.45;100.00
8641;BME280;4358;42.100;25.222;2023-01-25T03:23:20;101589.19;;;3.37;100.00
8641;BME280;4358;42.100;25.222;2023-01-25T03:25:47;101577.81;;;3.39;100.00
8641;BME280;4358;42.100;25.222;2023-01-25T03:28:14;101581.25;;;3.41;100.00
8641;BME280;4358;42.100;25.222;2023-01-25T03:30:40;101592.69;;;3.37;100.00
8641;BME280;4358;42.100;25.222;2023-01-25T03:33:07;101588.19;;;3.50;100.00
8641;BME280;4358;42.100;25.222;2023-01-25T03:35:35;101586.38;;;3.54;100.00
8641;BME280;4358;42.100;25.222;2023-01-25T03:38:02;101587.34;;;3.47;100.00
8641;BME280;4358;42.100;25.222;2023-01-25T03:40:29;101591.75;;;3.45;100.00
8641;BME280;4358;42.100;25.222;2023-01-25T03:42:56;101586.50;;;3.45;100.00
8641;BME280;4358;42.100;25.222;2023-01-25T03:45:22;101597.81;;;3.50;100.00
8641;BME280;4358;42.100;25.222;2023-01-25T03:47:49;101595.16;;;3.53;100.00
8641;BME280;4358;42.100;25.222;2023-01-25T03:50:16;101592.53;;;3.53;100.00
8641;BME280;4358;42.100;25.222;2023-01-25T03:53:04;101594.22;;;3.57;100.00
8641;BME280;4358;42.100;25.222;2023-01-25T03:55:51;101598.63;;;3.55;100.00
8641;BME280;4358;42.100;25.222;2023-01-25T03:58:18;101596.00;;;3.53;100.00
8641;BME280;4358;42.100;25.222;2023-01-25T04:00:44;101593.38;;;3.55;100.00
8641;BME280;4358;42.100;25.222;2023-01-25T04:03:11;101593.44;;;3.49;100.00
8641;BME280;4358;42.100;25.222;2023-01-25T04:05:38;101594.22;;;3.57;100.00
8641;BME280;4358;42.100;25.222;2023-01-25T04:08:06;101595.94;;;3.61;100.00
8641;BME280;4358;42.100;25.222;2023-01-25T04:10:33;101595.00;;;3.65;100.00
8641;BME280;4358;42.100;25.222;2023-01-25T04:13:00;101601.97;;;3.67;100.00
8641;BME280;4358;42.100;25.222;2023-01-25T04:15:27;101594.13;;;3.66;100.00
8641;BME280;4358;42.100;25.222;2023-01-25T04:17:54;101602.03;;;3.63;100.00
8641;BME280;4358;42.100;25.222;2023-01-25T04:20:21;101603.75;;;3.65;100.00
8641;BME280;4358;42.100;25.222;2023-01-25T04:22:48;101599.44;;;3.60;100.00
8641;BME280;4358;42.100;25.222;2023-01-25T04:25:16;101601.22;;;3.58;100.00
8641;BME280;4358;42.100;25.222;2023-01-25T04:27:43;101604.81;;;3.49;100.00
8641;BME280;4358;42.100;25.222;2023-01-25T04:30:10;101591.81;;;3.38;100.00
8641;BME280;4358;42.100;25.222;2023-01-25T04:32:37;101598.88;;;3.30;100.00
8641;BME280;4358;42.100;25.222;2023-01-25T04:35:04;101610.13;;;3.41;100.00
8641;BME280;4358;42.100;25.222;2023-01-25T04:37:31;101609.22;;;3.46;100.00
8641;BME280;4358;42.100;25.222;2023-01-25T04:39:58;101608.31;;;3.48;100.00
8641;BME280;4358;42.100;25.222;2023-01-25T04:42:26;101614.50;;;3.44;100.00
8641;BME280;4358;42.100;25.222;2023-01-25T04:44:53;101618.00;;;3.45;100.00
8641;BME280;4358;42.100;25.222;2023-01-25T04:47:20;101609.25;;;3.44;100.00
8641;BME280;4358;42.100;25.222;2023-01-25T04:49:46;101621.44;;;3.50;100.00
8641;BME280;4358;42.100;25.222;2023-01-25T04:52:13;101617.88;;;3.54;100.00
8641;BME280;4358;42.100;25.222;2023-01-25T04:54:40;101626.63;;;3.56;100.00
8641;BME280;4358;42.100;25.222;2023-01-25T04:57:07;101616.19;;;3.47;100.00
8641;BME280;4358;42.100;25.222;2023-01-25T04:59:35;101622.28;;;3.52;100.00
8641;BME280;4358;42.100;25.222;2023-01-25T05:02:02;101617.88;;;3.55;100.00
8641;BME280;4358;42.100;25.222;2023-01-25T05:04:29;101616.25;;;3.42;100.00
8641;BME280;4358;42.100;25.222;2023-01-25T05:06:55;101618.88;;;3.45;100.00
8641;BME280;4358;42.100;25.222;2023-01-25T05:09:22;101623.38;;;3.32;100.00
8641;BME280;4358;42.100;25.222;2023-01-25T05:11:49;101624.13;;;3.42;100.00
8641;BME280;4358;42.100;25.222;2023-01-25T05:14:16;101623.31;;;3.35;100.00
8641;BME280;4358;42.100;25.222;2023-01-25T05:16:44;101616.25;;;3.40;100.00
8641;BME280;4358;42.100;25.222;2023-01-25T05:19:11;101618.16;;;3.28;100.00
8641;BME280;4358;42.100;25.222;2023-01-25T05:21:38;101614.59;;;3.33;100.00
8641;BME280;4358;42.100;25.222;2023-01-25T05:24:23;101621.56;;;3.37;100.00
8641;BME280;4358;42.100;25.222;2023-01-25T05:26:50;101620.69;;;3.38;100.00
8641;BME280;4358;42.100;25.222;2023-01-25T05:29:33;101618.13;;;3.32;100.00
8641;BME280;4358;42.100;25.222;2023-01-25T05:32:04;101615.56;;;3.25;100.00
8641;BME280;4358;42.100;25.222;2023-01-25T05:34:32;101621.63;;;3.30;100.00
8641;BME280;4358;42.100;25.222;2023-01-25T05:36:59;101623.41;;;3.26;100.00
8641;BME280;4358;42.100;25.222;2023-01-25T05:39:27;101625.09;;;3.33;100.00
8641;BME280;4358;42.100;25.222;2023-01-25T05:41:54;101630.34;;;3.32;100.00
8641;BME280;4358;42.100;25.222;2023-01-25T05:44:21;101633.91;;;3.26;100.00
8641;BME280;4358;42.100;25.222;2023-01-25T05:46:48;101628.63;;;3.32;100.00
8641;BME280;4358;42.100;25.222;2023-01-25T05:49:16;101617.19;;;3.35;100.00
8641;BME280;4358;42.100;25.222;2023-01-25T05:51:43;101632.94;;;3.39;100.00
8641;BME280;4358;42.100;25.222;2023-01-25T05:54:12;101638.13;;;3.42;100.00
8641;BME280;4358;42.100;25.222;2023-01-25T05:56:39;101631.25;;;3.31;100.00
8641;BME280;4358;42.100;25.222;2023-01-25T05:59:06;101628.56;;;3.38;100.00
8641;BME280;4358;42.100;25.222;2023-01-25T06:01:33;101637.25;;;3.40;100.00
8641;BME280;4358;42.100;25.222;2023-01-25T06:04:00;101628.63;;;3.32;100.00
8641;BME280;4358;42.100;25.222;2023-01-25T06:06:28;101630.38;;;3.30;100.00
8641;BME280;4358;42.100;25.222;2023-01-25T06:08:55;101619.84;;;3.33;100.00
8641;BME280;4358;42.100;25.222;2023-01-25T06:11:22;101621.59;;;3.34;100.00
8641;BME280;4358;42.100;25.222;2023-01-25T06:13:50;101634.63;;;3.45;100.00
8641;BME280;4358;42.100;25.222;2023-01-25T06:16:17;101633.75;;;3.43;100.00
8641;BME280;4358;42.100;25.222;2023-01-25T06:18:44;101639.00;;;3.45;100.00
8641;BME280;4358;42.100;25.222;2023-01-25T06:21:11;101633.03;;;3.29;100.00
8641;BME280;4358;42.100;25.222;2023-01-25T06:23:39;101640.75;;;3.41;100.00
8641;BME280;4358;42.100;25.222;2023-01-25T06:26:09;101641.78;;;3.28;100.00
8641;BME280;4358;42.100;25.222;2023-01-25T06:28:37;101636.59;;;3.22;100.00
8641;BME280;4358;42.100;25.222;2023-01-25T06:31:05;101633.81;;;3.35;100.00
8641;BME280;4358;42.100;25.222;2023-01-25T06:33:32;101628.66;;;3.26;100.00
8641;BME280;4358;42.100;25.222;2023-01-25T06:36:01;101642.50;;;3.40;100.00
8641;BME280;4358;42.100;25.222;2023-01-25T06:38:27;101642.72;;;3.22;100.00
8641;BME280;4358;42.100;25.222;2023-01-25T06:40:59;101643.53;;;3.29;100.00
8641;BME280;4358;42.100;25.222;2023-01-25T06:43:26;101644.41;;;3.29;100.00
8641;BME280;4358;42.100;25.222;2023-01-25T06:45:57;101638.19;;;3.36;100.00
8641;BME280;4358;42.100;25.222;2023-01-25T06:48:24;101640.81;;;3.36;100.00
8641;BME280;4358;42.100;25.222;2023-01-25T06:50:55;101642.50;;;3.40;100.00
8641;BME280;4358;42.100;25.222;2023-01-25T06:53:23;101637.41;;;3.25;100.00
8641;BME280;4358;42.100;25.222;2023-01-25T06:55:56;101641.72;;;3.32;100.00
8641;BME280;4358;42.100;25.222;2023-01-25T06:58:24;101637.31;;;3.37;100.00
8641;BME280;4358;42.100;25.222;2023-01-25T07:00:51;101641.69;;;3.35;100.00
8641;BME280;4358;42.100;25.222;2023-01-25T07:03:18;101636.47;;;3.34;100.00
8641;BME280;4358;42.100;25.222;2023-01-25T07:05:45;101642.66;;;3.28;100.00
8641;BME280;4358;42.100;25.222;2023-01-25T07:08:14;101641.78;;;3.28;100.00
8641;BME280;4358;42.100;25.222;2023-01-25T07:10:41;101642.81;;;3.10;100.00
8641;BME280;4358;42.100;25.222;2023-01-25T07:13:08;101647.22;;;3.07;100.00
8641;BME280;4358;42.100;25.222;2023-01-25T07:15:36;101648.84;;;3.21;100.00
8641;BME280;4358;42.100;25.222;2023-01-25T07:18:03;101649.56;;;3.37;100.00
8641;BME280;4358;42.100;25.222;2023-01-25T07:20:30;101648.66;;;3.39;100.00
8641;BME280;4358;42.100;25.222;2023-01-25T07:22:58;101655.72;;;3.34;100.00
8641;BME280;4358;42.100;25.222;2023-01-25T07:25:24;101661.84;;;3.33;100.00
8641;BME280;4358;42.100;25.222;2023-01-25T07:27:51;101659.13;;;3.44;100.00
8641;BME280;4358;42.100;25.222;2023-01-25T07:30:18;101660.84;;;3.47;100.00
8641;BME280;4358;42.100;25.222;2023-01-25T07:32:47;101656.41;;;3.52;100.00
8641;BME280;4358;42.100;25.222;2023-01-25T07:35:14;101657.31;;;3.51;100.00
8641;BME280;4358;42.100;25.222;2023-01-25T07:37:41;101664.31;;;3.50;100.00
8641;BME280;4358;42.100;25.222;2023-01-25T07:40:09;101667.72;;;3.60;100.00
8641;BME280;4358;42.100;25.222;2023-01-25T07:42:36;101664.09;;;3.70;100.00
8641;BME280;4358;42.100;25.222;2023-01-25T07:45:03;101654.38;;;3.78;100.00
8641;BME280;4358;42.100;25.222;2023-01-25T07:47:30;101662.31;;;3.72;100.00
8641;BME280;4358;42.100;25.222;2023-01-25T07:49:59;101667.53;;;3.76;100.00
8641;BME280;4358;42.100;25.222;2023-01-25T07:52:25;101658.91;;;3.62;100.00
8641;BME280;4358;42.100;25.222;2023-01-25T07:54:52;101661.69;;;3.49;100.00
8641;BME280;4358;42.100;25.222;2023-01-25T07:57:19;101664.28;;;3.53;100.00
8641;BME280;4358;42.100;25.222;2023-01-25T07:59:46;101663.34;;;3.57;100.00
8641;BME280;4358;42.100;25.222;2023-01-25T08:02:14;101668.53;;;3.65;100.00
8641;BME280;4358;42.100;25.222;2023-01-25T08:04:41;101664.88;;;3.78;100.00
8641;BME280;4358;42.100;25.222;2023-01-25T08:07:11;101667.59;;;3.70;100.00
8641;BME280;4358;42.100;25.222;2023-01-25T08:09:38;101673.72;;;3.71;100.00
8641;BME280;4358;42.100;25.222;2023-01-25T08:12:06;101677.13;;;3.79;100.00
8641;BME280;4358;42.100;25.222;2023-01-25T08:14:33;101676.25;;;3.77;100.00
8641;BME280;4358;42.100;25.222;2023-01-25T08:17:00;101671.81;;;3.85;100.00
8641;BME280;4358;42.100;25.222;2023-01-25T08:19:27;101673.56;;;3.83;100.00
8641;BME280;4358;42.100;25.222;2023-01-25T08:21:54;101666.50;;;3.90;100.00
8641;BME280;4358;42.100;25.222;2023-01-25T08:24:22;101682.25;;;3.91;100.00
8641;BME280;4358;42.100;25.222;2023-01-25T08:26:49;101676.00;;;4.00;100.00
8641;BME280;4358;42.100;25.222;2023-01-25T08:29:16;101676.06;;;3.95;100.00
8641;BME280;4358;42.100;25.222;2023-01-25T08:31:43;101675.13;;;4.02;100.00
8641;BME280;4358;42.100;25.222;2023-01-25T08:34:10;101677.63;;;4.08;100.00
8641;BME280;4358;42.100;25.222;2023-01-25T08:36:37;101675.94;;;4.06;100.00
8641;BME280;4358;42.100;25.222;2023-01-25T08:39:06;101672.44;;;4.07;100.00
8641;BME280;4358;42.100;25.222;2023-01-25T08:41:34;101676.88;;;4.02;100.00
8641;BME280;4358;42.100;25.222;2023-01-25T08:44:01;101671.50;;;4.11;100.00
8641;BME280;4358;42.100;25.222;2023-01-25T08:46:30;101652.28;;;4.07;100.00
8641;BME280;4358;42.100;25.222;2023-01-25T08:48:58;101681.00;;;4.21;100.00
8641;BME280;4358;42.100;25.222;2023-01-25T08:51:26;101680.00;;;4.30;100.00
8641;BME280;4358;42.100;25.222;2023-01-25T08:53:54;101677.47;;;4.23;100.00
8641;BME280;4358;42.100;25.222;2023-01-25T08:56:21;101669.66;;;4.17;100.00
8641;BME280;4358;42.100;25.222;2023-01-25T08:58:50;101672.31;;;4.16;100.00
8641;BME280;4358;42.100;25.222;2023-01-25T09:01:18;101667.97;;;4.13;100.00
8641;BME280;4358;42.100;25.222;2023-01-25T09:03:47;101664.28;;;4.26;100.00
8641;BME280;4358;42.100;25.222;2023-01-25T09:06:15;101659.91;;;4.27;100.00
8641;BME280;4358;42.100;25.222;2023-01-25T09:08:42;101654.63;;;4.29;100.00
8641;BME280;4358;42.100;25.222;2023-01-25T09:11:11;101655.53;;;4.24;100.00
8641;BME280;4358;42.100;25.222;2023-01-25T09:13:38;101655.44;;;4.32;100.00
8641;BME280;4358;42.100;25.222;2023-01-25T09:16:11;101644.84;;;4.38;100.00
8641;BME280;4358;42.100;25.222;2023-01-25T09:18:39;101646.63;;;4.35;100.00
8641;BME280;4358;42.100;25.222;2023-01-25T09:21:08;101645.81;;;4.30;100.00
8641;BME280;4358;42.100;25.222;2023-01-25T09:23:36;101643.19;;;4.30;100.00
8641;BME280;4358;42.100;25.222;2023-01-25T09:26:04;101643.19;;;4.33;100.00
8641;BME280;4358;42.100;25.222;2023-01-25T09:28:32;101634.28;;;4.43;100.00
8641;BME280;4358;42.100;25.222;2023-01-25T09:31:01;101628.94;;;4.46;100.00
8641;BME280;4358;42.100;25.222;2023-01-25T09:33:31;101625.41;;;4.50;100.00
8641;BME280;4358;42.100;25.222;2023-01-25T09:35:59;101621.88;;;4.51;100.00
8641;BME280;4358;42.100;25.222;2023-01-25T09:38:26;101608.88;;;4.42;100.00
8641;BME280;4358;42.100;25.222;2023-01-25T09:41:03;101604.38;;;4.50;100.00
8641;BME280;4358;42.100;25.222;2023-01-25T09:43:46;101601.38;;;4.71;100.00
8641;BME280;4358;42.100;25.222;2023-01-25T09:46:23;101598.59;;;4.82;100.00
8641;BME280;4358;42.100;25.222;2023-01-25T09:48:58;101597.03;;;4.70;100.00
8641;BME280;4358;42.100;25.222;2023-01-25T09:51:35;101594.19;;;4.84;100.00
8641;BME280;4358;42.100;25.222;2023-01-25T09:54:08;101591.25;;;5.00;100.00
8641;BME280;4358;42.100;25.222;2023-01-25T09:56:37;101594.59;;;5.10;100.00
8641;BME280;4358;42.100;25.222;2023-01-25T09:59:10;101578.78;;;5.11;100.00
8641;BME280;4358;42.100;25.222;2023-01-25T10:01:43;101584.69;;;5.24;100.00
8641;BME280;4358;42.100;25.222;2023-01-25T10:04:15;101589.13;;;5.21;100.00
8641;BME280;4358;42.100;25.222;2023-01-25T10:06:47;101586.53;;;5.19;100.00
8641;BME280;4358;42.100;25.222;2023-01-25T10:09:23;101575.09;;;5.22;100.00
8641;BME280;4358;42.100;25.222;2023-01-25T10:11:53;101570.22;;;5.00;100.00
8641;BME280;4358;42.100;25.222;2023-01-25T10:14:19;101574.47;;;5.07;100.00
8641;BME280;4358;42.100;25.222;2023-01-25T10:16:57;101561.19;;;5.13;100.00
8641;BME280;4358;42.100;25.222;2023-01-25T10:19:39;101567.44;;;5.08;100.00
8641;BME280;4358;42.100;25.222;2023-01-25T10:22:13;101556.78;;;5.16;100.00
8641;BME280;4358;42.100;25.222;2023-01-25T10:24:56;101549.06;;;5.05;100.00
8641;BME280;4358;42.100;25.222;2023-01-25T10:27:36;101552.16;;;4.81;100.00
8641;BME280;4358;42.100;25.222;2023-01-25T10:30:19;101544.34;;;4.76;100.00
8641;BME280;4358;42.100;25.222;2023-01-25T10:32:49;101540.47;;;4.95;100.00
8641;BME280;4358;42.100;25.222;2023-01-25T10:35:21;101538.06;;;4.82;100.00
8641;BME280;4358;42.100;25.222;2023-01-25T10:37:49;101529.84;;;5.01;100.00
8641;BME280;4358;42.100;25.222;2023-01-25T10:40:19;101531.22;;;5.21;100.00
8641;BME280;4358;42.100;25.222;2023-01-25T10:42:50;101528.69;;;5.16;100.00
8641;BME280;4358;42.100;25.222;2023-01-25T10:45:19;101526.44;;;4.96;100.00
8641;BME280;4358;42.100;25.222;2023-01-25T10:47:48;101519.16;;;5.10;100.00
8641;BME280;4358;42.100;25.222;2023-01-25T10:50:45;101481.56;;;5.02;100.00
8641;BME280;4358;42.100;25.222;2023-01-25T10:53:21;101516.97;;;5.32;100.00
8641;BME280;4358;42.100;25.222;2023-01-25T10:55:56;101517.75;;;5.36;100.00
8641;BME280;4358;42.100;25.222;2023-01-25T10:58:31;101518.78;;;5.29;100.00
8641;BME280;4358;42.100;25.222;2023-01-25T11:00:58;101510.06;;;5.27;100.00
8641;BME280;4358;42.100;25.222;2023-01-25T11:03:33;101505.81;;;5.20;100.00
8641;BME280;4358;42.100;25.222;2023-01-25T11:06:03;101497.13;;;5.15;100.00
8641;BME280;4358;42.100;25.222;2023-01-25T11:08:35;101487.75;;;5.01;100.00
8641;BME280;4358;42.100;25.222;2023-01-25T11:11:22;101504.91;;;5.21;100.00
8641;BME280;4358;42.100;25.222;2023-01-25T11:13:51;101500.41;;;5.26;100.00
8641;BME280;4358;42.100;25.222;2023-01-25T11:16:30;101496.91;;;5.25;100.00
8641;BME280;4358;42.100;25.222;2023-01-25T11:18:59;101489.97;;;5.23;100.00
8641;BME280;4358;42.100;25.222;2023-01-25T11:21:30;101485.50;;;5.26;100.00
8641;BME280;4358;42.100;25.222;2023-01-25T11:24:03;101465.66;;;5.08;100.00
8641;BME280;4358;42.100;25.222;2023-01-25T11:26:32;101487.38;;;5.20;100.00
8641;BME280;4358;42.100;25.222;2023-01-25T11:29:11;101481.03;;;5.30;100.00
8641;BME280;4358;42.100;25.222;2023-01-25T11:31:40;101475.00;;;5.25;100.00
8641;BME280;4358;42.100;25.222;2023-01-25T11:34:10;101460.03;;;5.28;100.00
8641;BME280;4358;42.100;25.222;2023-01-25T11:39:35;101458.88;;;5.40;100.00
8641;BME280;4358;42.100;25.222;2023-01-25T11:42:14;101434.34;;;5.38;100.00
8641;BME280;4358;42.100;25.222;2023-01-25T11:47:54;101458.38;;;5.64;100.00
8641;BME280;4358;42.100;25.222;2023-01-25T11:50:30;101452.34;;;5.59;100.00
8641;BME280;4358;42.100;25.222;2023-01-25T11:53:32;101449.47;;;5.68;100.00
8641;BME280;4358;42.100;25.222;2023-01-25T11:56:06;101439.84;;;5.67;100.00
8641;BME280;4358;42.100;25.222;2023-01-25T11:58:47;101424.13;;;5.64;100.00
8641;BME280;4358;42.100;25.222;2023-01-25T12:01:25;101437.06;;;5.73;100.00
8641;BME280;4358;42.100;25.222;2023-01-25T12:04:14;101433.47;;;5.77;100.00
8641;BME280;4358;42.100;25.222;2023-01-25T12:06:55;101423.16;;;5.68;100.00
8641;BME280;4358;42.100;25.222;2023-01-25T12:09:54;101420.19;;;5.82;100.00
8641;BME280;4358;42.100;25.222;2023-01-25T12:12:31;101415.72;;;5.85;100.00
8641;BME280;4358;42.100;25.222;2023-01-25T12:15:11;101406.78;;;5.92;100.00
8641;BME280;4358;42.100;25.222;2023-01-25T12:18:13;101418.91;;;6.00;100.00
8641;BME280;4358;42.100;25.222;2023-01-25T12:20:59;101408.34;;;6.01;100.00
8641;BME280;4358;42.100;25.222;2023-01-25T12:23:35;101409.03;;;6.08;100.00
8641;BME280;4358;42.100;25.222;2023-01-25T12:26:15;101401.81;;;6.16;100.00
8641;BME280;4358;42.100;25.222;2023-01-25T12:28:47;101405.28;;;6.18;100.00
8641;BME280;4358;42.100;25.222;2023-01-25T12:31:19;101397.06;;;6.30;100.00
8641;BME280;4358;42.100;25.222;2023-01-25T12:33:52;101388.41;;;6.25;100.00
8641;BME280;4358;42.100;25.222;2023-01-25T12:36:23;101386.59;;;6.27;100.00
8641;BME280;4358;42.100;25.222;2023-01-25T12:38:55;101387.38;;;6.30;100.00
8641;BME280;4358;42.100;25.222;2023-01-25T12:41:36;101386.34;;;6.36;100.00
8641;BME280;4358;42.100;25.222;2023-01-25T12:44:14;101372.28;;;6.37;100.00
8641;BME280;4358;42.100;25.222;2023-01-25T12:46:50;101383.44;;;6.47;100.00
8641;BME280;4358;42.100;25.222;2023-01-25T12:49:24;101369.69;;;6.34;100.00
8641;BME280;4358;42.100;25.222;2023-01-25T12:51:53;101389.66;;;6.44;100.00
8641;BME280;4358;42.100;25.222;2023-01-25T12:54:28;101383.34;;;6.17;100.00
8641;BME280;4358;42.100;25.222;2023-01-25T12:57:10;101382.38;;;6.20;100.00
8641;BME280;4358;42.100;25.222;2023-01-25T12:59:48;101390.06;;;6.29;100.00
8641;BME280;4358;42.100;25.222;2023-01-25T13:02:50;101387.28;;;6.01;100.00
8641;BME280;4358;42.100;25.222;2023-01-25T13:05:27;101382.25;;;5.90;100.00
8641;BME280;4358;42.100;25.222;2023-01-25T13:08:02;101375.44;;;5.80;100.00
8641;BME280;4358;42.100;25.222;2023-01-25T13:10:33;101373.94;;;5.70;100.00
8641;BME280;4358;42.100;25.222;2023-01-25T13:13:19;101379.88;;;5.78;100.00
8641;BME280;4358;42.100;25.222;2023-01-25T13:15:47;101385.00;;;5.46;100.00
8641;BME280;4358;42.100;25.222;2023-01-25T13:18:44;101374.25;;;5.55;100.00
8641;BME280;4358;42.100;25.222;2023-01-25T13:21:37;101367.22;;;5.57;100.00
8641;BME280;4358;42.100;25.222;2023-01-25T13:24:13;101365.09;;;5.34;100.00
8641;BME280;4358;42.100;25.222;2023-01-25T13:29:45;101365.81;;;5.41;100.00